Time;durP1;ratioP1;P1;durP2;ratioP2;P2;SDS_P1;SDS_P2;PMS_P1;PMS_P2;Temp;Humidity;BMP_temperature;BMP_pressure;BME280_temperature;BME280_humidity;BME280_pressure;Samples;Min_cycle;Max_cycle;Signal;HPM_P1;HPM_P2
2022/04/24 00:00:12;;;;;;;6.88;5.13;;;12.40;95.70;;;;;;4955137;28;20097;-46
2022/04/24 00:02:38;;;;;;;6.88;4.82;;;12.30;95.60;;;;;;4955359;28;20032;-43
2022/04/24 00:05:04;;;;;;;5.78;5.05;;;12.30;95.60;;;;;;4955485;28;20102;-45
2022/04/24 00:07:30;;;;;;;6.13;5.03;;;12.30;95.30;;;;;;4959539;28;20074;-46
2022/04/24 00:09:56;;;;;;;6.20;4.32;;;12.30;95.30;;;;;;4962089;28;20031;-44
2022/04/24 00:12:21;;;;;;;14.43;4.68;;;12.30;95.20;;;;;;4963262;28;20031;-47
2022/04/24 00:14:48;;;;;;;5.25;4.68;;;12.20;94.90;;;;;;4962987;28;20035;-50
2022/04/24 00:17:20;;;;;;;4.40;4.03;;;12.20;94.80;;;;;;4968065;28;20055;-52
2022/04/24 00:19:45;;;;;;;7.43;4.38;;;12.30;94.80;;;;;;4970258;28;20468;-45
2022/04/24 00:22:11;;;;;;;4.65;4.15;;;12.20;94.70;;;;;;4955200;28;20042;-46
2022/04/24 00:24:37;;;;;;;5.40;4.15;;;12.20;94.70;;;;;;4955055;28;20023;-45
2022/04/24 00:27:02;;;;;;;7.30;3.90;;;12.10;94.60;;;;;;4955040;28;20023;-46
2022/04/24 00:29:28;;;;;;;6.10;4.20;;;12.20;94.60;;;;;;4954640;28;20023;-48
2022/04/24 00:31:54;;;;;;;6.90;4.47;;;12.10;94.60;;;;;;4954740;28;20035;-44
2022/04/24 00:34:19;;;;;;;4.28;3.88;;;12.10;94.50;;;;;;4954653;28;20031;-47
2022/04/24 00:36:45;;;;;;;4.47;3.75;;;12.10;94.50;;;;;;4954500;28;20031;-43
2022/04/24 00:39:12;;;;;;;6.90;3.97;;;12.10;94.40;;;;;;4954708;28;20027;-44
2022/04/24 00:42:07;;;;;;;5.00;4.18;;;12.10;94.30;;;;;;4954477;28;20028;-48
2022/04/24 00:44:33;;;;;;;3.83;3.53;;;12.00;94.20;;;;;;4952829;29;20031;-46
2022/04/24 00:47:04;;;;;;;6.80;4.40;;;12.10;94.20;;;;;;4954459;28;20295;-46
2022/04/24 00:49:30;;;;;;;5.38;3.65;;;12.10;94.00;;;;;;4954410;28;20475;-46
2022/04/24 00:51:56;;;;;;;4.25;3.63;;;12.20;93.90;;;;;;4954334;28;20223;-50
2022/04/24 00:54:22;;;;;;;4.10;3.70;;;12.10;93.80;;;;;;4953811;28;20058;-49
2022/04/24 00:56:47;;;;;;;4.65;3.85;;;12.10;93.70;;;;;;4954055;28;20169;-51
2022/04/24 00:59:14;;;;;;;4.55;4.15;;;12.10;93.60;;;;;;4953897;28;20570;-48
2022/04/24 01:01:41;;;;;;;3.70;3.40;;;12.10;93.70;;;;;;4954389;28;20019;-44
2022/04/24 01:04:08;;;;;;;3.85;3.53;;;12.10;93.50;;;;;;4954215;28;20460;-49
2022/04/24 01:06:39;;;;;;;5.82;3.60;;;12.10;93.20;;;;;;4954092;28;20527;-48
2022/04/24 01:09:08;;;;;;;4.35;3.95;;;12.10;93.20;;;;;;4953621;28;20044;-46
2022/04/24 01:11:34;;;;;;;5.45;3.65;;;12.10;93.10;;;;;;4953963;28;20024;-43
2022/04/24 01:13:59;;;;;;;5.20;3.78;;;12.20;93.10;;;;;;4954062;28;20704;-44
2022/04/24 01:16:25;;;;;;;3.72;3.40;;;12.10;93.20;;;;;;4954166;28;20078;-44
2022/04/24 01:18:50;;;;;;;3.50;3.20;;;12.00;93.20;;;;;;4953380;28;20115;-48
2022/04/24 01:21:16;;;;;;;4.93;3.53;;;12.10;93.00;;;;;;4953888;28;20027;-44
2022/04/24 01:23:43;;;;;;;3.42;3.20;;;12.10;92.90;;;;;;4953737;28;20100;-43
2022/04/24 01:26:08;;;;;;;4.60;2.90;;;12.10;92.80;;;;;;4953880;28;20504;-44
2022/04/24 01:28:34;;;;;;;3.63;3.33;;;12.10;92.70;;;;;;4953208;28;20048;-44
2022/04/24 01:30:59;;;;;;;4.25;3.30;;;12.10;92.70;;;;;;4953777;28;20082;-44
2022/04/24 01:33:27;;;;;;;7.15;3.67;;;12.10;92.70;;;;;;4953580;28;20035;-49
2022/04/24 01:35:52;;;;;;;5.38;3.40;;;12.20;92.60;;;;;;4953834;28;20395;-45
2022/04/24 01:38:18;;;;;;;3.75;3.42;;;12.10;92.60;;;;;;4953037;28;20031;-44
2022/04/24 01:40:43;;;;;;;3.78;3.38;;;12.10;92.60;;;;;;4953511;28;20031;-45
2022/04/24 01:43:09;;;;;;;4.88;3.88;;;12.10;92.60;;;;;;4953604;28;20558;-44
2022/04/24 01:45:34;;;;;;;5.85;3.25;;;12.10;92.60;;;;;;4953619;28;20027;-48
2022/04/24 01:48:00;;;;;;;3.50;3.08;;;12.10;92.60;;;;;;4953170;28;20487;-44
2022/04/24 01:50:25;;;;;;;6.93;3.53;;;12.00;92.70;;;;;;4953600;28;20114;-45
2022/04/24 01:52:51;;;;;;;4.13;3.40;;;12.00;92.80;;;;;;4954891;28;20030;-46
2022/04/24 01:55:18;;;;;;;5.03;3.30;;;12.00;92.70;;;;;;4953481;28;20035;-44
2022/04/24 01:57:44;;;;;;;4.05;3.10;;;12.00;92.70;;;;;;4953040;28;20023;-44
2022/04/24 02:00:10;;;;;;;3.88;3.47;;;12.00;92.90;;;;;;4953155;28;20509;-44
2022/04/24 02:02:35;;;;;;;3.88;3.42;;;12.00;92.80;;;;;;4953378;28;20027;-44
2022/04/24 02:05:01;;;;;;;4.00;3.65;;;12.00;93.00;;;;;;4953295;28;20034;-43
2022/04/24 02:07:28;;;;;;;3.80;3.50;;;11.90;93.00;;;;;;4954920;28;20151;-44
2022/04/24 02:09:54;;;;;;;4.53;3.33;;;12.00;92.90;;;;;;4981333;23;20109;-45
2022/04/24 02:12:19;;;;;;;3.60;3.30;;;11.90;93.00;;;;;;4976487;28;20392;-44
2022/04/24 02:14:45;;;;;;;3.63;3.33;;;12.00;93.00;;;;;;4976628;28;20081;-48
2022/04/24 02:17:10;;;;;;;9.77;4.45;;;12.00;92.80;;;;;;4976168;28;20019;-46
2022/04/24 02:19:37;;;;;;;4.38;3.65;;;12.00;93.00;;;;;;4976586;28;20037;-40
2022/04/24 02:22:03;;;;;;;5.68;3.67;;;12.00;92.90;;;;;;4977167;28;20374;-44
2022/04/24 02:24:28;;;;;;;9.05;4.07;;;12.00;92.90;;;;;;4976360;28;20021;-46
2022/04/24 02:26:54;;;;;;;11.95;4.32;;;11.90;92.90;;;;;;4975919;28;20031;-45
2022/04/24 02:29:20;;;;;;;3.72;3.42;;;12.00;92.90;;;;;;4976197;28;20134;-44
2022/04/24 02:31:45;;;;;;;4.85;4.35;;;12.00;92.90;;;;;;4991195;28;20058;-48
2022/04/24 02:34:11;;;;;;;3.75;3.40;;;11.90;92.80;;;;;;4991241;28;20027;-45
2022/04/24 02:36:36;;;;;;;5.55;4.10;;;11.90;93.00;;;;;;4976340;28;20038;-44
2022/04/24 02:39:02;;;;;;;4.60;4.20;;;11.90;92.70;;;;;;4975656;28;20089;-47
2022/04/24 02:41:28;;;;;;;4.75;4.28;;;11.90;92.90;;;;;;4976001;28;20105;-41
2022/04/24 02:43:53;;;;;;;4.57;4.13;;;11.90;92.70;;;;;;4976060;28;20030;-46
2022/04/24 02:46:19;;;;;;;4.30;3.90;;;11.80;93.00;;;;;;4976004;28;20394;-46
2022/04/24 02:48:44;;;;;;;4.18;3.78;;;11.80;92.90;;;;;;4975526;28;20110;-47
2022/04/24 02:51:10;;;;;;;4.50;3.50;;;11.80;93.00;;;;;;4975934;28;20026;-46
2022/04/24 02:53:35;;;;;;;3.65;3.35;;;11.80;93.00;;;;;;4990724;28;20026;-46
2022/04/24 02:56:01;;;;;;;3.67;3.38;;;11.80;93.10;;;;;;4975837;28;20027;-43
2022/04/24 02:58:26;;;;;;;6.35;3.75;;;11.90;93.20;;;;;;4975397;28;20399;-45
2022/04/24 03:00:54;;;;;;;8.00;4.22;;;11.70;92.90;;;;;;4975609;28;20062;-46
2022/04/24 03:03:20;;;;;;;4.05;3.65;;;11.80;93.00;;;;;;4975717;28;20023;-46
2022/04/24 03:05:48;;;;;;;4.10;3.70;;;11.80;92.90;;;;;;4975627;28;20022;-47
2022/04/24 03:08:15;;;;;;;4.05;3.65;;;11.80;92.90;;;;;;4975199;28;20085;-47
2022/04/24 03:10:40;;;;;;;6.75;3.72;;;11.80;92.90;;;;;;4974112;28;20053;-42
2022/04/24 03:13:06;;;;;;;3.63;3.33;;;11.80;93.10;;;;;;4975518;28;20030;-46
2022/04/24 03:15:32;;;;;;;8.98;5.05;;;11.80;92.90;;;;;;4975343;28;20039;-47
2022/04/24 03:17:58;;;;;;;6.35;4.30;;;11.80;92.90;;;;;;4974613;28;20033;-45
2022/04/24 03:20:23;;;;;;;5.57;3.90;;;11.70;92.80;;;;;;4975192;28;20511;-45
2022/04/24 03:22:50;;;;;;;4.95;4.03;;;11.70;93.00;;;;;;4975319;28;20023;-45
2022/04/24 03:25:16;;;;;;;5.75;3.95;;;11.70;92.90;;;;;;4975658;28;20242;-45
2022/04/24 03:27:41;;;;;;;4.28;3.88;;;11.60;93.10;;;;;;4975016;28;20450;-48
2022/04/24 03:30:11;;;;;;;6.25;4.60;;;11.60;93.00;;;;;;4975081;28;20423;-47
2022/04/24 03:32:37;;;;;;;5.32;4.10;;;11.60;93.00;;;;;;4975099;28;20033;-46
2022/04/24 03:35:05;;;;;;;6.50;4.50;;;11.60;93.00;;;;;;4975130;28;20101;-48
2022/04/24 03:37:31;;;;;;;5.88;4.13;;;11.60;93.00;;;;;;4974557;28;20459;-46
2022/04/24 03:39:57;;;;;;;5.28;3.80;;;11.60;92.90;;;;;;4974646;28;20037;-48
2022/04/24 03:42:25;;;;;;;5.20;4.10;;;11.70;92.90;;;;;;4974907;28;20403;-46
2022/04/24 03:44:52;;;;;;;4.40;4.00;;;11.60;92.60;;;;;;4974761;28;20027;-45
2022/04/24 03:47:19;;;;;;;4.50;4.10;;;11.60;93.00;;;;;;4974507;28;20015;-46
2022/04/24 03:49:44;;;;;;;4.75;4.35;;;11.60;93.00;;;;;;4974711;28;20105;-45
2022/04/24 03:52:11;;;;;;;4.65;4.20;;;11.60;93.00;;;;;;4974786;28;20114;-42
2022/04/24 03:54:37;;;;;;;4.20;3.90;;;11.60;93.10;;;;;;4975145;28;20110;-43
2022/04/24 03:57:03;;;;;;;8.30;4.40;;;11.60;93.10;;;;;;4974415;28;20543;-45
2022/04/24 03:59:29;;;;;;;5.43;4.68;;;11.70;92.80;;;;;;4974431;28;20031;-50
2022/04/24 04:01:54;;;;;;;5.32;4.70;;;11.70;92.80;;;;;;4974731;28;20018;-42
2022/04/24 04:04:20;;;;;;;5.13;4.63;;;11.70;92.80;;;;;;4974785;28;20027;-46
2022/04/24 04:06:45;;;;;;;4.80;4.40;;;11.70;93.00;;;;;;4973189;28;20019;-42
2022/04/24 04:09:11;;;;;;;6.25;4.25;;;11.70;92.90;;;;;;4974150;28;20035;-46
2022/04/24 04:11:37;;;;;;;5.00;4.50;;;11.70;93.00;;;;;;4974521;28;20105;-45
2022/04/24 04:14:02;;;;;;;5.28;4.78;;;11.70;93.00;;;;;;4974829;28;20550;-41
2022/04/24 04:16:28;;;;;;;4.40;4.00;;;11.70;93.00;;;;;;4974581;28;20105;-45
2022/04/24 04:18:54;;;;;;;5.10;4.35;;;11.70;93.10;;;;;;4974305;28;20491;-44
2022/04/24 04:21:19;;;;;;;5.50;4.15;;;11.70;93.30;;;;;;4974985;28;20027;-45
2022/04/24 04:23:45;;;;;;;4.60;4.18;;;11.80;93.00;;;;;;4974345;28;20026;-47
2022/04/24 04:26:11;;;;;;;6.65;4.32;;;11.80;93.50;;;;;;4974440;28;20106;-45
2022/04/24 04:28:36;;;;;;;6.57;4.40;;;11.70;94.10;;;;;;4972224;28;20027;-47
2022/04/24 04:31:03;;;;;;;5.95;5.22;;;11.70;94.60;;;;;;4973570;28;20102;-44
2022/04/24 04:33:28;;;;;;;4.50;4.10;;;11.60;95.30;;;;;;4974146;28;20085;-45
2022/04/24 04:35:54;;;;;;;5.55;4.68;;;11.50;95.50;;;;;;4973973;28;20027;-47
2022/04/24 04:38:19;;;;;;;8.45;4.88;;;11.40;95.80;;;;;;4973621;28;20023;-46
2022/04/24 04:40:45;;;;;;;11.38;4.40;;;11.40;96.00;;;;;;4973728;28;20023;-42
2022/04/24 04:43:11;;;;;;;5.20;4.75;;;11.30;96.80;;;;;;4973814;28;20101;-46
2022/04/24 04:45:36;;;;;;;7.10;4.60;;;11.20;96.50;;;;;;4973912;28;20055;-45
2022/04/24 04:48:03;;;;;;;9.05;5.13;;;11.20;97.10;;;;;;4973626;28;20057;-47
2022/04/24 04:50:28;;;;;;;8.10;4.47;;;11.20;97.40;;;;;;4973789;28;20545;-47
2022/04/24 04:52:54;;;;;;;6.75;5.07;;;11.30;97.00;;;;;;4974251;28;20026;-46
2022/04/24 04:55:19;;;;;;;6.00;5.13;;;11.30;96.80;;;;;;4973737;28;20411;-48
2022/04/24 04:57:46;;;;;;;5.97;5.38;;;11.40;96.80;;;;;;4973374;28;20098;-44
2022/04/24 05:00:13;;;;;;;4.82;4.32;;;11.40;96.50;;;;;;4973372;28;20510;-47
2022/04/24 05:02:39;;;;;;;5.13;4.68;;;11.30;96.80;;;;;;4973809;28;20029;-47
2022/04/24 05:05:08;;;;;;;5.15;4.70;;;11.30;96.70;;;;;;4973741;28;20038;-45
2022/04/24 05:07:35;;;;;;;5.18;4.78;;;11.30;97.00;;;;;;4973184;28;20507;-47
2022/04/24 05:10:00;;;;;;;5.15;4.65;;;11.20;97.00;;;;;;4973213;28;20062;-46
2022/04/24 05:12:27;;;;;;;5.35;4.85;;;11.20;97.30;;;;;;4973466;28;20019;-46
2022/04/24 05:15:00;;;;;;;6.45;5.10;;;11.20;97.20;;;;;;4973353;28;20023;-41
2022/04/24 05:17:27;;;;;;;6.75;5.40;;;11.30;97.10;;;;;;4973098;28;20030;-47
2022/04/24 05:19:53;;;;;;;6.85;5.70;;;11.30;97.20;;;;;;4973240;28;20081;-45
2022/04/24 05:22:18;;;;;;;5.18;4.75;;;11.20;97.50;;;;;;4988027;28;20023;-46
2022/04/24 05:24:44;;;;;;;5.45;4.93;;;11.20;97.70;;;;;;4972012;28;20061;-46
2022/04/24 05:27:09;;;;;;;5.32;4.93;;;11.10;98.10;;;;;;4972865;28;20462;-42
2022/04/24 05:29:35;;;;;;;7.00;5.30;;;11.00;98.20;;;;;;4988035;28;20394;-44
2022/04/24 05:32:00;;;;;;;6.28;5.68;;;11.00;98.50;;;;;;4973257;28;20030;-45
2022/04/24 05:34:26;;;;;;;5.63;5.13;;;11.00;98.20;;;;;;4973169;28;20450;-44
2022/04/24 05:36:51;;;;;;;6.40;5.75;;;10.90;97.90;;;;;;4972857;28;20483;-43
2022/04/24 05:39:17;;;;;;;5.72;5.15;;;11.00;98.10;;;;;;4972772;28;20054;-45
2022/04/24 05:41:42;;;;;;;6.32;5.80;;;11.00;98.20;;;;;;4972902;28;20034;-45
2022/04/24 05:44:08;;;;;;;5.45;4.95;;;11.00;97.70;;;;;;4973089;28;20533;-48
2022/04/24 05:46:33;;;;;;;6.22;5.63;;;11.00;97.80;;;;;;4971696;28;20045;-48
2022/04/24 05:49:00;;;;;;;8.00;5.85;;;11.10;97.80;;;;;;4972424;28;20066;-44
2022/04/24 05:51:27;;;;;;;5.95;5.32;;;11.10;97.50;;;;;;4972896;28;20120;-45
2022/04/24 05:53:53;;;;;;;5.78;5.18;;;11.20;97.40;;;;;;4972679;28;20025;-49
2022/04/24 05:56:18;;;;;;;11.48;5.07;;;11.20;97.50;;;;;;4972675;28;20399;-44
2022/04/24 05:58:44;;;;;;;6.78;6.07;;;11.20;97.20;;;;;;4972008;28;20031;-47
2022/04/24 06:01:09;;;;;;;6.38;5.75;;;11.30;96.90;;;;;;4972590;28;20045;-47
2022/04/24 06:03:40;;;;;;;6.18;5.35;;;11.30;96.90;;;;;;4972012;28;20050;-46
2022/04/24 06:06:05;;;;;;;7.70;5.75;;;11.30;97.00;;;;;;4955099;28;20035;-45
2022/04/24 06:08:31;;;;;;;7.30;6.07;;;11.40;96.70;;;;;;4972122;28;20034;-47
2022/04/24 06:10:57;;;;;;;6.05;5.45;;;11.40;96.70;;;;;;4972528;28;20110;-47
2022/04/24 06:13:22;;;;;;;7.55;6.68;;;11.40;96.50;;;;;;4972452;28;20114;-49
2022/04/24 06:15:48;;;;;;;6.75;6.00;;;11.40;96.40;;;;;;4972069;28;20027;-41
2022/04/24 06:18:14;;;;;;;6.38;5.78;;;11.40;96.50;;;;;;4971792;28;20286;-47
2022/04/24 06:20:39;;;;;;;6.55;5.90;;;11.50;96.40;;;;;;4964808;28;20032;-47
2022/04/24 06:23:05;;;;;;;7.30;5.43;;;11.50;96.30;;;;;;4953219;28;20023;-48
2022/04/24 06:25:33;;;;;;;6.78;5.60;;;11.60;96.30;;;;;;4970096;28;20065;-41
2022/04/24 06:28:00;;;;;;;6.45;5.85;;;11.60;96.40;;;;;;4954537;28;20026;-47
2022/04/24 06:30:28;;;;;;;8.02;6.25;;;11.70;96.60;;;;;;4957764;28;20082;-45
2022/04/24 06:32:55;;;;;;;7.45;5.97;;;11.70;96.40;;;;;;4972041;28;20030;-44
2022/04/24 06:35:20;;;;;;;6.80;6.00;;;11.70;96.10;;;;;;4972858;28;20031;-46
2022/04/24 06:37:48;;;;;;;6.10;5.50;;;11.70;96.30;;;;;;4972836;28;20027;-47
2022/04/24 06:40:15;;;;;;;7.00;6.10;;;11.70;96.20;;;;;;4971871;28;20039;-48
2022/04/24 06:42:53;;;;;;;6.95;5.97;;;11.80;96.60;;;;;;4971978;28;20372;-48
2022/04/24 06:45:29;;;;;;;6.65;5.95;;;11.80;96.40;;;;;;4972602;28;20114;-43
2022/04/24 06:47:56;;;;;;;6.65;6.05;;;11.80;96.70;;;;;;4972544;28;20038;-44
2022/04/24 06:50:23;;;;;;;6.63;6.03;;;11.90;96.80;;;;;;4972177;28;20035;-48
2022/04/24 06:52:59;;;;;;;7.15;6.35;;;11.90;96.70;;;;;;4973179;28;20027;-45
2022/04/24 06:55:25;;;;;;;7.40;6.43;;;11.90;97.20;;;;;;4975924;28;20494;-42
2022/04/24 06:57:51;;;;;;;8.45;6.25;;;12.00;97.00;;;;;;4975480;28;20101;-46
2022/04/24 07:00:19;;;;;;;7.05;5.95;;;12.10;96.40;;;;;;4975580;28;20114;-46
2022/04/24 07:02:45;;;;;;;7.55;6.75;;;12.20;96.70;;;;;;4975726;28;20023;-47
2022/04/24 07:05:11;;;;;;;7.68;6.30;;;12.30;96.30;;;;;;4975646;28;20470;-44
2022/04/24 07:07:36;;;;;;;6.80;6.10;;;12.30;96.30;;;;;;4975374;28;20077;-42
2022/04/24 07:10:02;;;;;;;9.27;6.18;;;12.20;96.00;;;;;;4975274;28;20117;-46
2022/04/24 07:12:29;;;;;;;7.10;6.40;;;12.20;96.50;;;;;;4975531;28;20150;-44
2022/04/24 07:14:55;;;;;;;7.90;6.78;;;12.20;96.70;;;;;;4975959;28;20030;-45
2022/04/24 07:17:21;;;;;;;8.23;7.07;;;12.20;96.30;;;;;;4975245;28;20479;-44
2022/04/24 07:19:47;;;;;;;9.60;6.68;;;12.20;96.30;;;;;;4990203;28;20031;-44
2022/04/24 07:22:13;;;;;;;8.75;6.75;;;12.20;96.60;;;;;;4975468;28;20037;-47
2022/04/24 07:24:38;;;;;;;7.43;6.72;;;12.20;96.60;;;;;;4975403;28;20026;-46
2022/04/24 07:27:04;;;;;;;7.60;6.80;;;12.20;96.10;;;;;;4988344;28;20023;-41
2022/04/24 07:29:29;;;;;;;7.68;6.72;;;12.10;96.60;;;;;;4973273;28;20031;-42
2022/04/24 07:31:55;;;;;;;7.93;7.22;;;12.10;96.50;;;;;;4974662;28;20023;-46
2022/04/24 07:34:20;;;;;;;9.65;7.20;;;12.10;96.50;;;;;;4975191;28;20483;-45
2022/04/24 07:36:46;;;;;;;7.85;7.07;;;12.20;96.90;;;;;;4974779;28;20045;-45
2022/04/24 07:39:14;;;;;;;7.47;6.72;;;12.20;96.30;;;;;;4975001;28;20081;-45
2022/04/24 07:41:39;;;;;;;8.45;7.65;;;12.20;96.50;;;;;;4974841;28;20646;-46
2022/04/24 07:44:06;;;;;;;44.92;26.83;;;12.30;96.60;;;;;;4975043;28;20030;-47
2022/04/24 07:46:33;;;;;;;104.38;68.22;;;12.30;96.40;;;;;;4974842;28;20386;-42
2022/04/24 07:48:59;;;;;;;16.48;11.68;;;12.30;96.50;;;;;;4974442;28;20442;-44
2022/04/24 07:51:24;;;;;;;8.57;7.68;;;12.30;96.50;;;;;;4975083;28;20105;-46
2022/04/24 07:53:50;;;;;;;9.43;7.38;;;12.30;96.50;;;;;;4974769;28;20027;-41
2022/04/24 07:56:15;;;;;;;10.75;7.82;;;12.30;96.60;;;;;;4974869;28;20150;-47
2022/04/24 07:58:41;;;;;;;8.73;7.93;;;12.20;96.80;;;;;;4974378;28;20030;-43
2022/04/24 08:01:07;;;;;;;9.88;8.00;;;12.20;96.60;;;;;;4974698;28;20521;-46
2022/04/24 08:03:32;;;;;;;8.85;7.95;;;12.30;96.60;;;;;;4974504;28;20052;-44
2022/04/24 08:05:58;;;;;;;9.05;7.85;;;12.30;96.80;;;;;;4974752;28;20026;-41
2022/04/24 08:08:24;;;;;;;11.10;8.50;;;12.30;96.60;;;;;;4974341;28;20023;-46
2022/04/24 08:10:57;;;;;;;9.38;8.38;;;12.40;96.60;;;;;;4993378;23;20478;-45
2022/04/24 08:13:24;;;;;;;9.35;7.97;;;12.40;96.30;;;;;;4973902;28;20026;-47
2022/04/24 08:15:50;;;;;;;10.25;8.15;;;12.40;96.40;;;;;;4974467;28;20507;-49
2022/04/24 08:18:16;;;;;;;9.45;7.68;;;12.30;96.40;;;;;;4972180;28;20462;-46
2022/04/24 08:20:43;;;;;;;11.68;8.63;;;12.30;97.10;;;;;;4959175;28;20492;-44
2022/04/24 08:23:10;;;;;;;9.40;8.45;;;12.40;96.60;;;;;;4957163;28;20031;-44
2022/04/24 08:25:36;;;;;;;13.15;9.60;;;12.40;96.20;;;;;;4972667;28;20023;-44
2022/04/24 08:28:07;;;;;;;10.63;9.45;;;12.30;96.00;;;;;;4973842;28;20398;-44
2022/04/24 08:30:34;;;;;;;9.15;8.20;;;12.20;96.30;;;;;;4973868;28;20027;-47
2022/04/24 08:32:59;;;;;;;10.43;9.27;;;12.20;96.20;;;;;;4972938;28;20073;-46
2022/04/24 08:35:25;;;;;;;10.07;9.07;;;12.30;96.40;;;;;;4984065;28;20023;-44
2022/04/24 08:37:51;;;;;;;10.80;9.35;;;12.30;96.30;;;;;;4969110;28;20027;-47
2022/04/24 08:40:19;;;;;;;10.57;8.93;;;12.40;96.40;;;;;;4964396;28;20122;-46
2022/04/24 08:42:45;;;;;;;19.05;9.45;;;12.40;96.30;;;;;;4971403;28;20534;-44
2022/04/24 08:45:12;;;;;;;14.68;9.27;;;12.40;96.00;;;;;;4988491;28;20035;-44
2022/04/24 08:47:38;;;;;;;10.88;9.75;;;12.50;96.20;;;;;;4973197;28;20049;-43
2022/04/24 08:50:05;;;;;;;40.28;26.67;;;12.70;96.10;;;;;;4973369;28;20034;-44
2022/04/24 08:52:31;;;;;;;109.82;69.20;;;12.70;95.90;;;;;;4973740;28;20482;-41
2022/04/24 08:54:58;;;;;;;12.77;11.38;;;12.80;95.70;;;;;;4988406;28;20027;-44
2022/04/24 08:57:30;;;;;;;10.32;8.90;;;12.80;95.60;;;;;;4972969;28;20034;-45
2022/04/24 08:59:57;;;;;;;9.80;8.70;;;12.80;95.10;;;;;;4954062;29;20158;-44
2022/04/24 09:02:23;;;;;;;11.00;9.55;;;12.90;95.60;;;;;;4937199;29;20051;-43
2022/04/24 09:04:49;;;;;;;11.43;8.45;;;13.10;95.20;;;;;;4954313;28;20025;-41
2022/04/24 09:07:18;;;;;;;10.77;9.27;;;13.20;95.50;;;;;;4953526;28;20443;-44
2022/04/24 09:09:48;;;;;;;12.40;8.68;;;13.30;95.00;;;;;;4953786;28;20027;-45
2022/04/24 09:12:16;;;;;;;10.13;8.60;;;13.50;95.10;;;;;;4972867;28;20082;-42
2022/04/24 09:14:51;;;;;;;17.73;9.60;;;13.70;94.40;;;;;;4972968;28;20122;-44
2022/04/24 09:17:20;;;;;;;13.20;9.73;;;13.90;94.20;;;;;;4972550;28;20061;-45
2022/04/24 09:19:46;;;;;;;10.25;8.85;;;14.00;93.80;;;;;;4972923;28;20110;-44
2022/04/24 09:22:13;;;;;;;9.77;8.85;;;14.00;94.00;;;;;;4973272;28;20099;-43
2022/04/24 09:24:54;;;;;;;10.30;9.27;;;14.10;94.70;;;;;;4973211;28;20034;-49
2022/04/24 09:27:31;;;;;;;10.77;9.45;;;14.20;93.50;;;;;;4973049;28;20027;-43
2022/04/24 09:29:59;;;;;;;15.95;9.80;;;14.20;93.30;;;;;;4973092;28;20033;-44
2022/04/24 09:32:27;;;;;;;14.02;9.85;;;14.20;93.60;;;;;;4973246;28;20027;-46
2022/04/24 09:34:53;;;;;;;12.75;10.40;;;14.30;93.70;;;;;;4972996;28;20105;-44
2022/04/24 09:37:19;;;;;;;10.95;9.85;;;14.40;93.30;;;;;;4972977;28;20082;-44
2022/04/24 09:39:45;;;;;;;10.13;9.18;;;14.50;93.00;;;;;;4973157;28;20023;-47
2022/04/24 09:42:13;;;;;;;11.98;10.27;;;14.40;93.60;;;;;;4973455;28;20019;-44
2022/04/24 09:44:48;;;;;;;12.05;9.93;;;14.30;93.10;;;;;;4987943;28;20403;-43
2022/04/24 09:47:16;;;;;;;11.37;10.17;;;14.40;93.60;;;;;;4987547;28;20458;-50
2022/04/24 09:49:45;;;;;;;12.75;9.70;;;14.40;93.50;;;;;;4972945;28;20273;-47
2022/04/24 09:52:16;;;;;;;10.80;9.52;;;14.30;93.60;;;;;;4972914;28;20086;-42
2022/04/24 09:54:43;;;;;;;12.18;10.32;;;14.30;93.70;;;;;;4973022;28;20055;-42
2022/04/24 09:57:11;;;;;;;11.98;10.23;;;14.20;93.30;;;;;;4972532;28;20380;-42
2022/04/24 09:59:41;;;;;;;10.65;9.50;;;14.10;93.50;;;;;;4972732;28;20023;-47
2022/04/24 10:02:08;;;;;;;10.15;9.13;;;14.20;93.80;;;;;;4972917;28;20023;-45
2022/04/24 10:04:36;;;;;;;9.93;8.93;;;14.20;93.60;;;;;;4973175;28;20023;-43
2022/04/24 10:07:06;;;;;;;10.52;9.45;;;14.20;93.70;;;;;;4972673;28;20027;-47
2022/04/24 10:09:37;;;;;;;10.02;9.02;;;14.20;94.30;;;;;;4973156;28;20027;-47
2022/04/24 10:12:04;;;;;;;12.82;9.50;;;14.20;93.90;;;;;;4973024;28;20043;-47
2022/04/24 10:14:32;;;;;;;13.05;9.93;;;14.10;93.90;;;;;;4972932;28;20143;-43
2022/04/24 10:17:04;;;;;;;11.38;9.20;;;14.10;94.00;;;;;;4972897;28;20031;-44
2022/04/24 10:20:03;;;;;;;10.55;9.38;;;14.10;94.40;;;;;;4971447;28;20023;-44
2022/04/24 10:22:39;;;;;;;74.65;47.10;;;14.10;93.90;;;;;;4973014;28;20031;-50
2022/04/24 10:25:06;;;;;;;15.45;12.77;;;14.10;94.10;;;;;;4972281;28;20027;-45
2022/04/24 10:27:38;;;;;;;17.30;11.20;;;14.00;94.10;;;;;;4966848;28;20102;-48
2022/04/24 10:30:05;;;;;;;12.75;9.55;;;13.90;94.10;;;;;;4963093;28;20491;-53
2022/04/24 10:32:30;;;;;;;10.70;9.68;;;13.90;94.20;;;;;;4971147;28;20027;-50
2022/04/24 10:34:56;;;;;;;10.85;9.65;;;14.00;94.30;;;;;;4957234;28;20039;-47
2022/04/24 10:37:33;;;;;;;10.95;9.65;;;14.00;94.40;;;;;;4968047;28;20102;-44
2022/04/24 10:40:00;;;;;;;11.20;9.63;;;14.10;94.60;;;;;;4975830;28;20026;-49
2022/04/24 10:42:34;;;;;;;11.85;10.13;;;14.20;93.80;;;;;;4976031;28;20023;-45
2022/04/24 10:45:07;;;;;;;11.88;10.10;;;14.20;93.80;;;;;;4975920;28;20102;-46
2022/04/24 10:47:53;;;;;;;10.45;9.38;;;14.20;93.80;;;;;;4975815;28;20018;-47
2022/04/24 10:50:20;;;;;;;;;;;14.20;93.80;;;;;;4976471;28;20038;-47
2022/04/24 10:52:47;;;;;;;11.07;9.68;;;14.30;93.90;;;;;;5008162;28;19948;-48
2022/04/24 10:55:15;;;;;;;11.93;9.93;;;14.30;94.00;;;;;;4976807;28;20445;-47
2022/04/24 10:57:42;;;;;;;11.50;10.20;;;14.40;94.30;;;;;;4976269;28;20505;-45
2022/04/24 11:00:24;;;;;;;10.32;9.32;;;14.40;94.00;;;;;;4976214;28;20042;-45
2022/04/24 11:02:51;;;;;;;12.63;9.68;;;14.50;93.80;;;;;;4976227;28;20027;-46
2022/04/24 11:05:22;;;;;;;11.07;9.82;;;14.40;93.90;;;;;;4976120;28;20027;-44
2022/04/24 11:07:48;;;;;;;12.65;10.15;;;14.40;93.80;;;;;;4975459;28;20027;-48
2022/04/24 11:10:17;;;;;;;11.35;9.57;;;14.40;93.80;;;;;;4975986;28;20031;-45
2022/04/24 11:12:43;;;;;;;12.07;10.35;;;14.50;93.90;;;;;;4976020;28;20101;-45
2022/04/24 11:15:11;;;;;;;11.38;10.10;;;14.60;93.90;;;;;;4974898;28;20133;-44
2022/04/24 11:17:38;;;;;;;11.02;9.70;;;14.70;93.70;;;;;;4975881;28;20043;-47
2022/04/24 11:20:13;;;;;;;11.00;9.35;;;14.60;93.80;;;;;;4976180;28;20030;-43
2022/04/24 11:22:50;;;;;;;10.48;9.38;;;14.60;94.10;;;;;;4991000;28;20114;-45
2022/04/24 11:25:19;;;;;;;12.50;10.23;;;14.60;94.50;;;;;;4976636;28;20019;-48
2022/04/24 11:27:48;;;;;;;13.90;9.52;;;14.60;94.00;;;;;;4975835;28;20149;-44
2022/04/24 11:30:20;;;;;;;11.80;9.43;;;14.50;94.30;;;;;;4975915;28;20443;-50
2022/04/24 11:33:04;;;;;;;11.18;10.05;;;14.40;94.60;;;;;;4976421;28;20041;-45
2022/04/24 11:35:30;;;;;;;13.88;9.05;;;14.40;94.40;;;;;;4976210;28;20083;-44
2022/04/24 11:37:56;;;;;;;13.73;9.75;;;14.40;94.10;;;;;;4975512;28;20113;-49
2022/04/24 11:40:22;;;;;;;11.75;10.10;;;14.40;94.20;;;;;;4975484;28;20073;-44
2022/04/24 11:42:48;;;;;;;10.88;9.77;;;14.50;94.30;;;;;;4975651;28;20077;-45
2022/04/24 11:50:52;;;;;;;12.93;10.00;;;14.50;95.00;;;;;;4979318;28;20041;-45
2022/04/24 11:53:22;;;;;;;12.25;10.70;;;14.60;94.90;;;;;;4983269;28;20114;-47
2022/04/24 11:56:04;;;;;;;11.23;9.63;;;14.60;94.50;;;;;;4984407;28;20034;-53
2022/04/24 11:58:37;;;;;;;13.60;9.85;;;14.60;94.60;;;;;;4982039;28;20082;-49
2022/04/24 12:01:04;;;;;;;13.48;12.07;;;14.80;95.60;;;;;;4978911;28;20051;-44
2022/04/24 12:03:32;;;;;;;13.30;10.05;;;14.80;94.20;;;;;;4978352;28;20534;-46
2022/04/24 12:06:02;;;;;;;12.27;10.68;;;14.70;94.10;;;;;;4975026;28;20495;-44
2022/04/24 12:08:46;;;;;;;11.60;9.38;;;14.60;94.80;;;;;;4974144;28;20030;-46
2022/04/24 12:11:29;;;;;;;12.80;9.52;;;14.70;94.80;;;;;;4974306;28;20055;-47
2022/04/24 12:14:12;;;;;;;11.48;10.07;;;14.70;94.70;;;;;;4973973;28;20038;-47
2022/04/24 12:16:40;;;;;;;13.00;10.75;;;14.70;94.90;;;;;;4980906;28;20041;-46
2022/04/24 12:19:08;;;;;;;12.15;10.52;;;14.90;94.70;;;;;;4973988;28;20125;-50
2022/04/24 12:21:50;;;;;;;11.13;10.02;;;14.80;94.80;;;;;;4974166;28;20027;-48
2022/04/24 12:24:16;;;;;;;13.35;10.73;;;14.80;95.20;;;;;;4974167;28;20403;-48
2022/04/24 12:26:49;;;;;;;13.55;10.63;;;15.00;94.60;;;;;;4974103;28;20162;-53
2022/04/24 12:29:18;;;;;;;11.50;10.30;;;15.00;94.30;;;;;;4973925;28;20383;-50
2022/04/24 12:31:47;;;;;;;12.05;9.55;;;15.00;94.50;;;;;;4973789;28;20027;-47
2022/04/24 12:34:14;;;;;;;12.27;10.30;;;15.00;95.00;;;;;;4973815;28;20379;-52
2022/04/24 12:36:50;;;;;;;11.60;10.38;;;15.10;94.60;;;;;;4970042;28;20101;-45
2022/04/24 12:39:23;;;;;;;10.55;9.50;;;15.10;94.60;;;;;;4974010;28;20019;-43
2022/04/24 12:41:49;;;;;;;11.85;10.35;;;14.90;94.90;;;;;;4973776;28;20022;-46
2022/04/24 12:44:14;;;;;;;12.65;10.50;;;14.90;94.80;;;;;;4974018;28;20019;-47
2022/04/24 12:46:40;;;;;;;31.15;17.52;;;15.00;94.80;;;;;;4973504;28;20030;-43
2022/04/24 12:49:07;;;;;;;21.45;13.52;;;15.10;94.60;;;;;;4988356;28;20018;-47